createdAt,value
2023-01-04T00:00:04.298Z,1003.70
2023-01-04T00:00:14.635Z,1003.71
2023-01-04T00:00:24.962Z,1003.71
2023-01-04T00:00:35.234Z,1003.68
2023-01-04T00:00:45.570Z,1003.64
2023-01-04T00:00:55.863Z,1003.61
2023-01-04T00:01:06.088Z,1003.67
2023-01-04T00:01:16.329Z,1003.61
2023-01-04T00:01:26.565Z,1003.68
2023-01-04T00:01:36.816Z,1003.65
2023-01-04T00:01:47.059Z,1003.62
2023-01-04T00:01:57.375Z,1003.60
2023-01-04T00:02:07.790Z,1003.63
2023-01-04T00:02:17.953Z,1003.63
2023-01-04T00:02:28.364Z,1003.62
2023-01-04T00:02:38.637Z,1003.63
2023-01-04T00:02:48.893Z,1003.68
2023-01-04T00:02:59.105Z,1003.67
2023-01-04T00:03:09.401Z,1003.56
2023-01-04T00:03:19.626Z,1003.53
2023-01-04T00:03:29.853Z,1003.60
2023-01-04T00:03:40.163Z,1003.58
2023-01-04T00:03:50.526Z,1003.55
2023-01-04T00:04:00.900Z,1003.57
2023-01-04T00:04:10.963Z,1003.56
2023-01-04T00:04:21.192Z,1003.52
2023-01-04T00:04:31.472Z,1003.52
2023-01-04T00:04:41.686Z,1003.56
2023-01-04T00:04:51.924Z,1003.53
2023-01-04T00:05:02.165Z,1003.53
2023-01-04T00:05:12.427Z,1003.49
2023-01-04T00:05:22.675Z,1003.48
2023-01-04T00:05:32.923Z,1003.55
2023-01-04T00:05:43.184Z,1003.45
2023-01-04T00:05:53.427Z,1003.44
2023-01-04T00:06:03.701Z,1003.47
2023-01-04T00:06:13.943Z,1003.42
2023-01-04T00:06:24.176Z,1003.41
2023-01-04T00:06:34.432Z,1003.42
2023-01-04T00:06:44.697Z,1003.43
2023-01-04T00:06:54.973Z,1003.45
2023-01-04T00:07:05.231Z,1003.45
2023-01-04T00:07:15.489Z,1003.44
2023-01-04T00:07:25.729Z,1003.44
2023-01-04T00:07:36.030Z,1003.37
2023-01-04T00:07:46.284Z,1003.40
2023-01-04T00:07:56.546Z,1003.38
2023-01-04T00:08:06.830Z,1003.40
2023-01-04T00:08:17.064Z,1003.41
2023-01-04T00:08:27.321Z,1003.40
2023-01-04T00:08:37.543Z,1003.42
2023-01-04T00:08:47.795Z,1003.39
2023-01-04T00:08:58.060Z,1003.35
2023-01-04T00:09:08.303Z,1003.34
2023-01-04T00:09:18.538Z,1003.39
2023-01-04T00:09:28.803Z,1003.39
2023-01-04T00:09:39.050Z,1003.41
2023-01-04T00:09:49.293Z,1003.37
2023-01-04T00:09:59.550Z,1003.36
2023-01-04T00:10:09.822Z,1003.38
2023-01-04T00:10:20.030Z,1003.37
2023-01-04T00:10:30.276Z,1003.38
2023-01-04T00:10:40.532Z,1003.37
2023-01-04T00:10:50.782Z,1003.31
2023-01-04T00:11:01.033Z,1003.32
2023-01-04T00:11:11.262Z,1003.29
2023-01-04T00:11:21.534Z,1003.36
2023-01-04T00:11:31.769Z,1003.34
2023-01-04T00:11:42.034Z,1003.26
2023-01-04T00:11:52.280Z,1003.31
2023-01-04T00:12:02.523Z,1003.24
2023-01-04T00:12:12.761Z,1003.26
2023-01-04T00:12:23.003Z,1003.25
2023-01-04T00:12:33.261Z,1003.20
2023-01-04T00:12:43.529Z,1003.22
2023-01-04T00:12:53.794Z,1003.23
2023-01-04T00:13:04.018Z,1003.21
2023-01-04T00:13:14.276Z,1003.20
2023-01-04T00:13:24.507Z,1003.21
2023-01-04T00:13:34.779Z,1003.21
2023-01-04T00:13:45.007Z,1003.23
2023-01-04T00:13:55.261Z,1003.21
2023-01-04T00:14:05.548Z,1003.19
2023-01-04T00:14:15.764Z,1003.17
2023-01-04T00:14:26.024Z,1003.19
2023-01-04T00:14:36.274Z,1003.18
2023-01-04T00:14:46.497Z,1003.20
2023-01-04T00:14:56.762Z,1003.18
2023-01-04T00:15:06.995Z,1003.15
2023-01-04T00:15:17.248Z,1003.18
2023-01-04T00:15:27.529Z,1003.16
2023-01-04T00:15:37.790Z,1003.17
2023-01-04T00:15:48.087Z,1003.21
2023-01-04T00:16:05.325Z,1003.21
2023-01-04T00:16:09.775Z,1003.14
2023-01-04T00:16:19.297Z,1003.17
2023-01-04T00:16:29.538Z,1003.16
2023-01-04T00:16:39.710Z,1003.14
2023-01-04T00:16:50.011Z,1003.14
2023-01-04T00:17:00.311Z,1003.20
2023-01-04T00:17:10.529Z,1003.20
2023-01-04T00:17:20.794Z,1003.20
2023-01-04T00:17:31.031Z,1003.22
2023-01-04T00:17:41.293Z,1003.24
2023-01-04T00:17:51.541Z,1003.19
2023-01-04T00:18:01.805Z,1003.21
2023-01-04T00:18:12.072Z,1003.24
2023-01-04T00:18:22.313Z,1003.18
2023-01-04T00:18:32.573Z,1003.16
2023-01-04T00:18:42.811Z,1003.20
2023-01-04T00:18:53.046Z,1003.21
2023-01-04T00:19:03.325Z,1003.24
2023-01-04T00:19:13.593Z,1003.22
2023-01-04T00:19:23.853Z,1003.19
2023-01-04T00:19:34.108Z,1003.22
2023-01-04T00:19:44.341Z,1003.22
2023-01-04T00:19:54.592Z,1003.20
2023-01-04T00:20:04.844Z,1003.18
2023-01-04T00:20:15.111Z,1003.19
2023-01-04T00:20:25.361Z,1003.18
2023-01-04T00:20:35.631Z,1003.18
2023-01-04T00:20:45.840Z,1003.14
2023-01-04T00:20:56.111Z,1003.14
2023-01-04T00:21:06.363Z,1003.13
2023-01-04T00:21:16.617Z,1003.14
2023-01-04T00:21:26.895Z,1003.14
2023-01-04T00:21:37.148Z,1003.11
2023-01-04T00:21:47.398Z,1003.10
2023-01-04T00:21:57.656Z,1003.10
2023-01-04T00:22:07.935Z,1003.10
2023-01-04T00:22:18.213Z,1003.11
2023-01-04T00:22:28.455Z,1003.09
2023-01-04T00:22:38.713Z,1003.07
2023-01-04T00:22:48.956Z,1003.05
2023-01-04T00:22:59.233Z,1003.08
2023-01-04T00:23:09.459Z,1003.12
2023-01-04T00:23:19.699Z,1003.09
2023-01-04T00:23:29.946Z,1003.08
2023-01-04T00:23:40.191Z,1003.07
2023-01-04T00:23:50.448Z,1003.07
2023-01-04T00:24:00.705Z,1003.06
2023-01-04T00:24:10.962Z,1002.97
2023-01-04T00:24:21.208Z,1002.99
2023-01-04T00:24:31.467Z,1003.00
2023-01-04T00:24:41.736Z,1002.99
2023-01-04T00:24:51.972Z,1003.03
2023-01-04T00:25:02.243Z,1003.00
2023-01-04T00:25:12.492Z,1003.01
2023-01-04T00:25:22.745Z,1002.96
2023-01-04T00:25:33.020Z,1002.96
2023-01-04T00:25:43.236Z,1002.99
2023-01-04T00:25:53.488Z,1003.02
2023-01-04T00:26:03.721Z,1003.02
2023-01-04T00:26:13.968Z,1003.00
2023-01-04T00:26:24.211Z,1003.02
2023-01-04T00:26:34.501Z,1002.99
2023-01-04T00:26:44.894Z,1002.99
2023-01-04T00:26:55.159Z,1002.98
2023-01-04T00:27:05.381Z,1003.01
2023-01-04T00:27:15.639Z,1003.01
2023-01-04T00:27:25.891Z,1002.99
2023-01-04T00:27:36.246Z,1003.00
2023-01-04T00:27:46.514Z,1003.00
2023-01-04T00:27:56.726Z,1003.00
2023-01-04T00:28:06.975Z,1003.00
2023-01-04T00:28:17.229Z,1002.97
2023-01-04T00:28:27.462Z,1003.02
2023-01-04T00:28:37.719Z,1002.97
2023-01-04T00:28:54.044Z,1002.98
2023-01-04T00:28:59.401Z,1002.99
2023-01-04T00:29:08.764Z,1003.05
2023-01-04T00:29:19.008Z,1003.00
2023-01-04T00:29:29.271Z,1003.00
2023-01-04T00:29:39.546Z,1002.93
2023-01-04T00:29:49.769Z,1002.93
2023-01-04T00:30:00.014Z,1002.98
2023-01-04T00:30:10.264Z,1002.99
2023-01-04T00:30:20.506Z,1002.95
2023-01-04T00:30:30.742Z,1002.95
2023-01-04T00:30:41.160Z,1002.90
2023-01-04T00:30:51.522Z,1002.95
2023-01-04T00:31:01.827Z,1002.89
2023-01-04T00:31:12.138Z,1002.88
2023-01-04T00:31:22.521Z,1002.91
2023-01-04T00:31:32.730Z,1002.89
2023-01-04T00:31:43.012Z,1002.88
2023-01-04T00:31:53.350Z,1002.89
2023-01-04T00:32:03.641Z,1002.95
2023-01-04T00:32:13.874Z,1002.98
2023-01-04T00:32:24.136Z,1002.91
2023-01-04T00:32:34.370Z,1002.88
2023-01-04T00:32:44.630Z,1002.88
2023-01-04T00:32:54.884Z,1002.93
2023-01-04T00:33:05.140Z,1002.92
2023-01-04T00:33:15.375Z,1002.92
2023-01-04T00:33:25.657Z,1002.90
2023-01-04T00:33:35.880Z,1002.87
2023-01-04T00:33:46.145Z,1002.92
2023-01-04T00:33:56.393Z,1002.94
2023-01-04T00:34:06.653Z,1002.93
2023-01-04T00:34:16.871Z,1002.93
2023-01-04T00:34:27.267Z,1002.90
2023-01-04T00:34:37.536Z,1002.95
2023-01-04T00:34:47.779Z,1002.93
2023-01-04T00:34:58.026Z,1002.89
2023-01-04T00:35:08.285Z,1002.89
2023-01-04T00:35:44.071Z,1002.85
2023-01-04T00:35:45.094Z,1002.85
2023-01-04T00:35:46.924Z,1002.86
2023-01-04T00:35:50.646Z,1002.85
2023-01-04T00:36:00.059Z,1002.90
2023-01-04T00:36:10.293Z,1002.85
2023-01-04T00:36:20.533Z,1002.88
2023-01-04T00:36:30.805Z,1002.87
2023-01-04T00:36:41.052Z,1002.81
2023-01-04T00:36:51.279Z,1002.80
2023-01-04T00:37:01.537Z,1002.77
2023-01-04T00:37:11.797Z,1002.79
2023-01-04T00:37:22.036Z,1002.81
2023-01-04T00:37:32.281Z,1002.72
2023-01-04T00:37:45.721Z,1002.74
2023-01-04T00:37:53.747Z,1002.80
2023-01-04T00:38:03.167Z,1002.78
2023-01-04T00:38:13.397Z,1002.79
2023-01-04T00:38:23.645Z,1002.87
2023-01-04T00:38:33.930Z,1002.83
2023-01-04T00:38:44.161Z,1002.86
2023-01-04T00:38:54.386Z,1002.81
2023-01-04T00:39:04.629Z,1002.86
2023-01-04T00:39:14.966Z,1002.83
2023-01-04T00:39:25.195Z,1002.81
2023-01-04T00:39:35.437Z,1002.86
2023-01-04T00:39:45.690Z,1002.82
2023-01-04T00:39:55.949Z,1002.82
2023-01-04T00:40:06.216Z,1002.84
2023-01-04T00:40:16.453Z,1002.81
2023-01-04T00:40:26.712Z,1002.77
2023-01-04T00:40:37.112Z,1002.78
2023-01-04T00:40:47.472Z,1002.71
2023-01-04T00:40:57.828Z,1002.81
2023-01-04T00:41:08.152Z,1002.72
2023-01-04T00:41:49.185Z,1002.79
2023-01-04T00:41:57.539Z,1002.79
2023-01-04T00:41:59.667Z,1002.83
2023-01-04T00:42:01.728Z,1002.83
2023-01-04T00:42:03.708Z,1002.81
2023-01-04T00:42:10.149Z,1002.75
2023-01-04T00:42:20.397Z,1002.75
2023-01-04T00:42:30.626Z,1002.72
2023-01-04T00:42:40.891Z,1002.73
2023-01-04T00:42:51.140Z,1002.75
2023-01-04T00:43:01.370Z,1002.78
2023-01-04T00:43:11.631Z,1002.75
2023-01-04T00:43:21.902Z,1002.72
2023-01-04T00:43:32.143Z,1002.72
2023-01-04T00:43:42.387Z,1002.72
2023-01-04T00:43:52.623Z,1002.74
2023-01-04T00:44:02.858Z,1002.73
2023-01-04T00:44:13.107Z,1002.72
2023-01-04T00:44:23.353Z,1002.69
2023-01-04T00:44:33.608Z,1002.69
2023-01-04T00:44:43.849Z,1002.71
2023-01-04T00:44:54.099Z,1002.73
2023-01-04T00:45:04.342Z,1002.71
2023-01-04T00:45:14.583Z,1002.71
2023-01-04T00:45:24.825Z,1002.72
2023-01-04T00:45:35.071Z,1002.70
2023-01-04T00:45:45.494Z,1002.73
2023-01-04T00:45:55.663Z,1002.79
2023-01-04T00:46:05.982Z,1002.69
2023-01-04T00:46:16.285Z,1002.65
2023-01-04T00:46:26.606Z,1002.67
2023-01-04T00:46:36.942Z,1002.64
2023-01-04T00:46:47.363Z,1002.65
2023-01-04T00:46:57.635Z,1002.69
2023-01-04T00:47:07.889Z,1002.68
2023-01-04T00:47:18.140Z,1002.66
2023-01-04T00:47:28.354Z,1002.69
2023-01-04T00:47:38.660Z,1002.56
2023-01-04T00:47:48.878Z,1002.70
2023-01-04T00:47:59.131Z,1002.68
2023-01-04T00:48:09.363Z,1002.62
2023-01-04T00:48:19.635Z,1002.60
2023-01-04T00:48:29.934Z,1002.60
2023-01-04T00:48:40.567Z,1002.63
2023-01-04T00:48:51.849Z,1002.60
2023-01-04T00:49:01.086Z,1002.55
2023-01-04T00:49:11.237Z,1002.57
2023-01-04T00:49:21.444Z,1002.60
2023-01-04T00:49:31.694Z,1002.60
2023-01-04T00:49:41.936Z,1002.64
2023-01-04T00:49:52.180Z,1002.66
2023-01-04T00:50:02.437Z,1002.63
2023-01-04T00:50:12.684Z,1002.64
2023-01-04T00:50:22.918Z,1002.65
2023-01-04T00:50:33.156Z,1002.59
2023-01-04T00:50:43.402Z,1002.54
2023-01-04T00:50:53.647Z,1002.57
2023-01-04T00:51:03.900Z,1002.61
2023-01-04T00:51:14.150Z,1002.61
2023-01-04T00:51:24.396Z,1002.60
2023-01-04T00:51:34.646Z,1002.62
2023-01-04T00:51:44.900Z,1002.59
2023-01-04T00:51:55.134Z,1002.66
2023-01-04T00:52:05.401Z,1002.63
2023-01-04T00:52:15.611Z,1002.61
2023-01-04T00:52:25.857Z,1002.57
2023-01-04T00:52:36.126Z,1002.60
2023-01-04T00:52:46.391Z,1002.60
2023-01-04T00:52:56.629Z,1002.62
2023-01-04T00:53:06.877Z,1002.69
2023-01-04T00:53:17.125Z,1002.71
2023-01-04T00:53:27.383Z,1002.67
2023-01-04T00:53:37.607Z,1002.69
2023-01-04T00:53:47.855Z,1002.70
2023-01-04T00:53:58.114Z,1002.63
2023-01-04T00:54:08.361Z,1002.63
2023-01-04T00:54:18.679Z,1002.68
2023-01-04T00:54:28.993Z,1002.69
2023-01-04T00:54:39.224Z,1002.72
2023-01-04T00:54:49.472Z,1002.65
2023-01-04T00:54:59.713Z,1002.63
2023-01-04T00:55:09.961Z,1002.63
2023-01-04T00:55:20.218Z,1002.62
2023-01-04T00:55:30.448Z,1002.65
2023-01-04T00:55:40.715Z,1002.64
2023-01-04T00:55:50.929Z,1002.62
2023-01-04T00:56:01.182Z,1002.69
2023-01-04T00:56:11.431Z,1002.75
2023-01-04T00:56:21.692Z,1002.66
2023-01-04T00:56:31.940Z,1002.60
2023-01-04T00:56:42.220Z,1002.63
2023-01-04T00:56:52.459Z,1002.69
2023-01-04T00:57:02.711Z,1002.66
2023-01-04T00:57:12.941Z,1002.62
2023-01-04T00:57:23.192Z,1002.62
2023-01-04T00:57:33.460Z,1002.64
2023-01-04T00:57:43.750Z,1002.66
2023-01-04T00:57:53.986Z,1002.64
2023-01-04T00:58:04.268Z,1002.68
2023-01-04T00:58:14.511Z,1002.62
2023-01-04T00:58:24.780Z,1002.67
2023-01-04T00:58:35.022Z,1002.65
2023-01-04T00:58:45.276Z,1002.60
2023-01-04T00:58:55.535Z,1002.59
2023-01-04T00:59:05.776Z,1002.65
2023-01-04T00:59:16.039Z,1002.65
2023-01-04T00:59:26.268Z,1002.64
2023-01-04T00:59:36.526Z,1002.64
2023-01-04T00:59:46.760Z,1002.64
2023-01-04T00:59:57.019Z,1002.66
2023-01-04T01:00:07.269Z,1002.63
2023-01-04T01:00:17.510Z,1002.61
2023-01-04T01:00:27.772Z,1002.57
2023-01-04T01:00:38.025Z,1002.64
2023-01-04T01:00:48.276Z,1002.63
2023-01-04T01:00:58.510Z,1002.65
2023-01-04T01:01:08.892Z,1002.66
2023-01-04T01:01:19.086Z,1002.63
2023-01-04T01:01:29.458Z,1002.58
2023-01-04T01:01:39.972Z,1002.60
2023-01-04T01:01:50.236Z,1002.58
2023-01-04T01:02:00.717Z,1002.58
2023-01-04T01:02:10.992Z,1002.55
2023-01-04T01:02:21.276Z,1002.57
2023-01-04T01:02:31.571Z,1002.57
2023-01-04T01:02:41.991Z,1002.64
2023-01-04T01:02:52.294Z,1002.66
2023-01-04T01:03:02.648Z,1002.61
2023-01-04T01:03:13.003Z,1002.60
2023-01-04T01:03:23.184Z,1002.56
2023-01-04T01:03:38.489Z,1002.60
2023-01-04T01:03:44.991Z,1002.60
2023-01-04T01:03:54.153Z,1002.57
2023-01-04T01:04:04.585Z,1002.57
2023-01-04T01:04:14.771Z,1002.61
2023-01-04T01:04:25.167Z,1002.66
2023-01-04T01:04:35.443Z,1002.56
2023-01-04T01:04:45.706Z,1002.50
2023-01-04T01:04:55.942Z,1002.54
2023-01-04T01:05:06.204Z,1002.56
2023-01-04T01:05:16.453Z,1002.56
2023-01-04T01:05:26.711Z,1002.51
2023-01-04T01:05:36.980Z,1002.50
2023-01-04T01:05:47.224Z,1002.49
2023-01-04T01:05:57.452Z,1002.50
2023-01-04T01:06:07.708Z,1002.50
2023-01-04T01:06:17.943Z,1002.51
2023-01-04T01:06:28.185Z,1002.50
2023-01-04T01:06:38.443Z,1002.50
2023-01-04T01:06:48.720Z,1002.51
2023-01-04T01:06:58.971Z,1002.50
2023-01-04T01:07:09.213Z,1002.43
2023-01-04T01:07:19.470Z,1002.48
2023-01-04T01:07:29.722Z,1002.43
2023-01-04T01:07:39.986Z,1002.42
2023-01-04T01:07:50.244Z,1002.42
2023-01-04T01:08:00.493Z,1002.45
2023-01-04T01:08:10.758Z,1002.53
2023-01-04T01:08:21.003Z,1002.49
2023-01-04T01:08:31.238Z,1002.47
2023-01-04T01:08:41.491Z,1002.34
2023-01-04T01:08:51.732Z,1002.41
2023-01-04T01:09:02.022Z,1002.46
2023-01-04T01:09:12.246Z,1002.36
2023-01-04T01:09:22.518Z,1002.43
2023-01-04T01:09:32.729Z,1002.42
2023-01-04T01:09:42.975Z,1002.34
2023-01-04T01:09:53.220Z,1002.32
2023-01-04T01:10:03.503Z,1002.37
2023-01-04T01:10:13.773Z,1002.36
2023-01-04T01:10:24.013Z,1002.39
2023-01-04T01:10:34.279Z,1002.47
2023-01-04T01:10:44.533Z,1002.49
2023-01-04T01:10:54.792Z,1002.44
2023-01-04T01:11:05.043Z,1002.44
2023-01-04T01:11:15.268Z,1002.43
2023-01-04T01:11:25.534Z,1002.41
2023-01-04T01:11:35.785Z,1002.41
2023-01-04T01:11:46.013Z,1002.35
2023-01-04T01:11:56.258Z,1002.42
2023-01-04T01:12:06.519Z,1002.41
2023-01-04T01:12:16.751Z,1002.46
2023-01-04T01:12:27.005Z,1002.43
2023-01-04T01:12:37.259Z,1002.42
2023-01-04T01:12:47.514Z,1002.40
2023-01-04T01:12:57.770Z,1002.42
2023-01-04T01:13:08.010Z,1002.47
2023-01-04T01:13:18.259Z,1002.39
2023-01-04T01:13:28.526Z,1002.34
2023-01-04T01:13:38.761Z,1002.39
2023-01-04T01:13:48.992Z,1002.37
2023-01-04T01:13:59.241Z,1002.40
2023-01-04T01:14:09.514Z,1002.35
2023-01-04T01:14:19.753Z,1002.38
2023-01-04T01:14:30.011Z,1002.32
2023-01-04T01:14:40.261Z,1002.38
2023-01-04T01:14:52.037Z,1002.38
2023-01-04T01:15:01.222Z,1002.33
2023-01-04T01:15:11.235Z,1002.35
2023-01-04T01:15:21.470Z,1002.36
2023-01-04T01:15:31.788Z,1002.34
2023-01-04T01:15:42.107Z,1002.33
2023-01-04T01:15:52.467Z,1002.33
2023-01-04T01:16:02.765Z,1002.33
2023-01-04T01:16:13.123Z,1002.30
2023-01-04T01:16:51.925Z,1002.29
2023-01-04T01:16:54.900Z,1002.31
2023-01-04T01:16:58.506Z,1002.32
2023-01-04T01:17:04.911Z,1002.30
2023-01-04T01:17:15.303Z,1002.26
2023-01-04T01:17:25.582Z,1002.29
2023-01-04T01:17:35.840Z,1002.28
2023-01-04T01:17:46.097Z,1002.30
2023-01-04T01:17:56.339Z,1002.26
2023-01-04T01:18:06.663Z,1002.25
2023-01-04T01:18:16.867Z,1002.21
2023-01-04T01:18:27.107Z,1002.20
2023-01-04T01:18:37.383Z,1002.21
2023-01-04T01:18:47.609Z,1002.18
2023-01-04T01:18:57.852Z,1002.21
2023-01-04T01:19:08.537Z,1002.23
2023-01-04T01:19:18.356Z,1002.24
2023-01-04T01:19:28.633Z,1002.16
2023-01-04T01:19:38.870Z,1002.11
2023-01-04T01:19:49.118Z,1002.11
2023-01-04T01:19:59.376Z,1002.16
2023-01-04T01:20:09.636Z,1002.17
2023-01-04T01:20:19.898Z,1002.18
2023-01-04T01:20:30.143Z,1002.19
2023-01-04T01:20:40.409Z,1002.24
2023-01-04T01:20:50.652Z,1002.27
2023-01-04T01:21:00.896Z,1002.23
2023-01-04T01:21:11.141Z,1002.16
2023-01-04T01:21:21.395Z,1002.12
2023-01-04T01:21:31.638Z,1002.09
2023-01-04T01:21:41.879Z,1002.15
2023-01-04T01:21:52.119Z,1002.15
2023-01-04T01:22:02.395Z,1002.10
2023-01-04T01:22:12.613Z,1002.13
2023-01-04T01:22:22.856Z,1002.06
2023-01-04T01:22:33.099Z,1002.05
2023-01-04T01:22:43.359Z,1002.13
2023-01-04T01:22:53.608Z,1002.14
2023-01-04T01:23:03.868Z,1002.19
2023-01-04T01:23:14.091Z,1002.16
2023-01-04T01:23:24.354Z,1002.10
2023-01-04T01:23:34.624Z,1002.09
2023-01-04T01:23:44.843Z,1002.09
2023-01-04T01:23:55.110Z,1002.08
2023-01-04T01:24:05.363Z,1002.10
2023-01-04T01:24:15.592Z,1002.06
2023-01-04T01:24:25.848Z,1002.12
2023-01-04T01:24:36.105Z,1002.15
2023-01-04T01:24:46.345Z,1002.13
2023-01-04T01:24:56.605Z,1002.00
2023-01-04T01:25:06.853Z,1001.95
2023-01-04T01:25:17.069Z,1001.98
2023-01-04T01:25:27.316Z,1002.07
2023-01-04T01:25:37.555Z,1001.97
2023-01-04T01:25:47.805Z,1002.00
2023-01-04T01:25:58.055Z,1002.03
2023-01-04T01:26:08.310Z,1001.98
2023-01-04T01:26:18.549Z,1001.95
2023-01-04T01:26:28.794Z,1001.96
2023-01-04T01:26:39.059Z,1002.01
2023-01-04T01:26:49.356Z,1001.96
2023-01-04T01:26:59.600Z,1001.98
2023-01-04T01:27:09.850Z,1001.97
2023-01-04T01:27:20.105Z,1001.93
2023-01-04T01:27:30.375Z,1001.91
2023-01-04T01:27:40.629Z,1001.89
2023-01-04T01:27:50.875Z,1001.88
2023-01-04T01:28:01.137Z,1001.91
2023-01-04T01:28:11.408Z,1001.93
2023-01-04T01:28:21.642Z,1001.92
2023-01-04T01:28:31.967Z,1001.92
2023-01-04T01:28:42.188Z,1001.95
2023-01-04T01:28:52.428Z,1001.90
2023-01-04T01:29:02.679Z,1001.91
2023-01-04T01:29:12.932Z,1001.91
2023-01-04T01:29:23.185Z,1001.93
2023-01-04T01:29:33.421Z,1001.92
2023-01-04T01:29:43.668Z,1001.94
2023-01-04T01:29:53.916Z,1001.96
2023-01-04T01:30:04.206Z,1001.91
2023-01-04T01:30:14.422Z,1001.96
2023-01-04T01:30:24.672Z,1001.92
2023-01-04T01:30:34.920Z,1001.87
2023-01-04T01:30:45.239Z,1001.90
2023-01-04T01:30:55.549Z,1001.91
2023-01-04T01:31:08.719Z,1001.88
2023-01-04T01:31:16.229Z,1001.92
2023-01-04T01:31:26.531Z,1001.90
2023-01-04T01:31:36.931Z,1001.87
2023-01-04T01:31:47.286Z,1001.89
2023-01-04T01:31:57.681Z,1001.92
2023-01-04T01:32:07.955Z,1001.91
2023-01-04T01:32:18.209Z,1001.81
2023-01-04T01:32:28.468Z,1001.93
2023-01-04T01:32:38.765Z,1001.90
2023-01-04T01:32:48.984Z,1001.94
2023-01-04T01:32:59.290Z,1001.91
2023-01-04T01:33:09.603Z,1001.94
2023-01-04T01:33:19.811Z,1001.91
2023-01-04T01:33:30.108Z,1001.90
2023-01-04T01:33:40.357Z,1001.98
2023-01-04T01:33:50.677Z,1001.91
2023-01-04T01:34:00.895Z,1001.82
2023-01-04T01:34:11.156Z,1001.94
2023-01-04T01:34:21.411Z,1001.88
2023-01-04T01:34:31.650Z,1001.87
2023-01-04T01:34:41.901Z,1001.79
2023-01-04T01:34:52.136Z,1001.82
2023-01-04T01:35:02.384Z,1001.88
2023-01-04T01:35:12.628Z,1001.88
2023-01-04T01:35:22.884Z,1001.89
2023-01-04T01:35:33.152Z,1001.92
2023-01-04T01:35:43.397Z,1001.84
2023-01-04T01:35:53.637Z,1001.84
2023-01-04T01:36:03.886Z,1001.85
2023-01-04T01:36:14.128Z,1001.90
2023-01-04T01:36:24.592Z,1001.88
2023-01-04T01:36:34.748Z,1001.91
2023-01-04T01:36:45.111Z,1001.95
2023-01-04T01:36:55.459Z,1001.88
2023-01-04T01:37:05.725Z,1001.85
2023-01-04T01:37:16.118Z,1001.86
2023-01-04T01:37:26.322Z,1001.88
2023-01-04T01:37:36.596Z,1001.81
2023-01-04T01:37:46.819Z,1001.82
2023-01-04T01:37:57.068Z,1001.82
2023-01-04T01:38:07.319Z,1001.87
2023-01-04T01:38:17.552Z,1001.87
2023-01-04T01:38:27.797Z,1001.96
2023-01-04T01:38:38.042Z,1001.87
2023-01-04T01:38:48.300Z,1001.87
2023-01-04T01:38:58.527Z,1001.84
2023-01-04T01:39:08.779Z,1001.91
2023-01-04T01:39:19.023Z,1001.82
2023-01-04T01:39:29.266Z,1001.84
2023-01-04T01:39:39.507Z,1001.85
2023-01-04T01:39:49.753Z,1001.83
2023-01-04T01:40:00.140Z,1001.86
2023-01-04T01:40:10.359Z,1001.90
2023-01-04T01:40:20.604Z,1001.93
2023-01-04T01:40:30.848Z,1001.87
2023-01-04T01:40:41.092Z,1001.78
2023-01-04T01:40:51.334Z,1001.81
2023-01-04T01:41:01.570Z,1001.83
2023-01-04T01:41:11.814Z,1001.89
2023-01-04T01:41:22.063Z,1001.96
2023-01-04T01:41:32.470Z,1001.72
2023-01-04T01:41:42.705Z,1001.68
2023-01-04T01:41:52.950Z,1001.80
2023-01-04T01:42:03.199Z,1001.79
2023-01-04T01:42:13.445Z,1001.77
2023-01-04T01:42:23.734Z,1001.81
2023-01-04T01:42:33.961Z,1001.78
2023-01-04T01:42:44.253Z,1001.77
2023-01-04T01:42:54.512Z,1001.81
2023-01-04T01:43:04.771Z,1001.76
2023-01-04T01:43:15.037Z,1001.79
2023-01-04T01:43:25.307Z,1001.82
2023-01-04T01:43:35.625Z,1001.78
2023-01-04T01:43:45.877Z,1001.79
2023-01-04T01:43:56.204Z,1001.79
2023-01-04T01:44:06.484Z,1001.76
2023-01-04T01:44:16.759Z,1001.78
2023-01-04T01:44:27.026Z,1001.81
2023-01-04T01:44:37.305Z,1001.78
2023-01-04T01:44:47.570Z,1001.81
2023-01-04T01:44:57.850Z,1001.85
2023-01-04T01:45:08.145Z,1001.81
2023-01-04T01:45:18.406Z,1001.82
2023-01-04T01:45:28.692Z,1001.83
2023-01-04T01:45:38.958Z,1001.78
2023-01-04T01:45:49.220Z,1001.80
2023-01-04T01:45:59.528Z,1001.87
2023-01-04T01:46:09.832Z,1001.83
2023-01-04T01:46:20.170Z,1001.81
2023-01-04T01:46:30.481Z,1001.79
2023-01-04T01:46:41.000Z,1001.85
2023-01-04T01:46:51.197Z,1001.79
2023-01-04T01:47:01.513Z,1001.76
2023-01-04T01:47:11.812Z,1001.76
2023-01-04T01:47:22.093Z,1001.83
2023-01-04T01:47:32.383Z,1001.82
2023-01-04T01:47:42.657Z,1001.87
2023-01-04T01:47:52.951Z,1001.80
2023-01-04T01:48:03.226Z,1001.80
2023-01-04T01:48:13.496Z,1001.76
2023-01-04T01:48:23.766Z,1001.80
2023-01-04T01:48:34.055Z,1001.87
2023-01-04T01:48:44.316Z,1001.76
2023-01-04T01:48:54.597Z,1001.77
2023-01-04T01:49:04.885Z,1001.80
2023-01-04T01:49:15.160Z,1001.79
2023-01-04T01:49:25.414Z,1001.88
2023-01-04T01:49:35.728Z,1001.78
2023-01-04T01:49:46.028Z,1001.81
2023-01-04T01:49:56.312Z,1001.89
2023-01-04T01:50:06.568Z,1001.75
2023-01-04T01:50:16.844Z,1001.79
2023-01-04T01:50:27.114Z,1001.71
2023-01-04T01:50:37.394Z,1001.79
2023-01-04T01:50:47.650Z,1001.71
2023-01-04T01:50:57.947Z,1001.70
2023-01-04T01:51:08.200Z,1001.81
2023-01-04T01:51:18.472Z,1001.87
2023-01-04T01:51:28.756Z,1001.78
2023-01-04T01:51:39.038Z,1001.85
2023-01-04T01:51:49.318Z,1001.75
2023-01-04T01:51:59.614Z,1001.78
2023-01-04T01:52:09.875Z,1001.75
2023-01-04T01:52:20.152Z,1001.76
2023-01-04T01:52:30.420Z,1001.86
2023-01-04T01:52:40.707Z,1001.74
2023-01-04T01:52:50.994Z,1001.76
2023-01-04T01:53:01.288Z,1001.76
2023-01-04T01:53:11.545Z,1001.79
2023-01-04T01:53:21.822Z,1001.81
2023-01-04T01:53:32.120Z,1001.78
2023-01-04T01:53:42.389Z,1001.73
2023-01-04T01:53:52.647Z,1001.77
2023-01-04T01:54:02.920Z,1001.75
2023-01-04T01:54:13.228Z,1001.79
2023-01-04T01:54:23.508Z,1001.79
2023-01-04T01:54:33.802Z,1001.77
2023-01-04T01:54:44.076Z,1001.80
2023-01-04T01:54:54.353Z,1001.78
2023-01-04T01:55:04.632Z,1001.80
2023-01-04T01:55:14.898Z,1001.81
2023-01-04T01:55:25.205Z,1001.77
2023-01-04T01:55:35.475Z,1001.70
2023-01-04T01:55:45.766Z,1001.92
2023-01-04T01:55:56.029Z,1001.81
2023-01-04T01:56:06.322Z,1001.80
2023-01-04T01:56:16.568Z,1001.81
2023-01-04T01:56:26.839Z,1001.80
2023-01-04T01:56:37.135Z,1001.74
2023-01-04T01:56:47.378Z,1001.81
2023-01-04T01:56:57.664Z,1001.83
2023-01-04T01:57:07.965Z,1001.85
2023-01-04T01:57:18.245Z,1001.88
2023-01-04T01:57:28.493Z,1001.79
2023-01-04T01:57:38.829Z,1001.78
2023-01-04T01:57:49.071Z,1001.72
2023-01-04T01:57:59.339Z,1001.78
2023-01-04T01:58:09.620Z,1001.78
2023-01-04T01:58:19.895Z,1001.70
2023-01-04T01:58:30.183Z,1001.75
2023-01-04T01:58:40.473Z,1001.76
2023-01-04T01:58:50.738Z,1001.82
2023-01-04T01:59:01.013Z,1001.82
2023-01-04T01:59:11.296Z,1001.84
2023-01-04T01:59:21.562Z,1001.70
2023-01-04T01:59:31.958Z,1001.74
2023-01-04T01:59:42.224Z,1001.72
2023-01-04T01:59:52.489Z,1001.74
2023-01-04T02:00:02.766Z,1001.72
2023-01-04T02:00:13.051Z,1001.75
2023-01-04T02:00:23.329Z,1001.76
2023-01-04T02:00:33.589Z,1001.77
2023-01-04T02:00:43.866Z,1001.73
2023-01-04T02:00:54.128Z,1001.76
2023-01-04T02:01:04.435Z,1001.69
2023-01-04T02:01:14.894Z,1001.66
2023-01-04T02:01:25.084Z,1001.68
2023-01-04T02:01:35.459Z,1001.73
2023-01-04T02:01:45.919Z,1001.75
2023-01-04T02:01:56.198Z,1001.60
2023-01-04T02:02:06.736Z,1001.76
2023-01-04T02:02:16.933Z,1001.70
2023-01-04T02:02:27.326Z,1001.76
2023-01-04T02:02:37.766Z,1001.66
2023-01-04T02:02:48.052Z,1001.69
2023-01-04T02:02:58.457Z,1001.65
2023-01-04T02:03:08.517Z,1001.66
2023-01-04T02:03:18.774Z,1001.62
2023-01-04T02:03:29.020Z,1001.68
2023-01-04T02:03:39.334Z,1001.68
2023-01-04T02:03:49.445Z,1001.74
2023-01-04T02:03:59.851Z,1001.69
2023-01-04T02:04:10.307Z,1001.64
2023-01-04T02:04:20.406Z,1001.65